createdAt,value
2019-04-23T00:00:45.357Z,1011.40
2019-04-23T00:01:43.332Z,1011.40
2019-04-23T00:02:40.755Z,1011.42
2019-04-23T00:03:48.399Z,1011.36
2019-04-23T00:04:45.186Z,1011.35
2019-04-23T00:06:53.766Z,1011.35
2019-04-23T00:08:52.252Z,1011.32
2019-04-23T00:09:47.139Z,1011.35
2019-04-23T00:10:45.944Z,1011.32
2019-04-23T00:11:46.159Z,1011.31
2019-04-23T00:12:53.034Z,1011.30
2019-04-23T00:13:43.912Z,1011.29
2019-04-23T00:15:03.648Z,1011.31
2019-04-23T00:15:55.288Z,1011.32
2019-04-23T00:16:44.898Z,1011.25
2019-04-23T00:17:42.117Z,1011.27
2019-04-23T00:18:46.087Z,1011.22
2019-04-23T00:19:47.199Z,1011.25
2019-04-23T00:20:40.742Z,1011.25
2019-04-23T00:21:45.878Z,1011.23
2019-04-23T00:22:50.074Z,1011.24
2019-04-23T00:23:53.413Z,1011.21
2019-04-23T00:25:49.108Z,1011.15
2019-04-23T00:26:42.695Z,1011.17
2019-04-23T00:27:47.783Z,1011.15
2019-04-23T00:28:53.073Z,1011.18
2019-04-23T00:29:47.961Z,1011.18
2019-04-23T00:31:44.547Z,1011.11
2019-04-23T00:32:42.642Z,1011.11
2019-04-23T00:33:40.925Z,1011.17
2019-04-23T00:34:49.646Z,1011.11
2019-04-23T00:35:43.494Z,1011.11
2019-04-23T00:36:44.777Z,1011.10
2019-04-23T00:37:44.422Z,1011.11
2019-04-23T00:38:54.387Z,1011.10
2019-04-23T00:39:46.832Z,1011.11
2019-04-23T00:40:43.639Z,1011.03
2019-04-23T00:41:43.543Z,1011.04
2019-04-23T00:42:51.736Z,1011.07
2019-04-23T00:43:43.159Z,1011.01
2019-04-23T00:44:46.032Z,1011.06
2019-04-23T00:46:41.938Z,1011.01
2019-04-23T00:47:46.782Z,1010.99
2019-04-23T00:49:51.623Z,1011.00
2019-04-23T00:50:57.482Z,1011.02
2019-04-23T00:51:47.746Z,1010.94
2019-04-23T00:52:39.570Z,1011.02
2019-04-23T00:53:42.057Z,1010.96
2019-04-23T00:54:49.110Z,1010.98
2019-04-23T00:56:03.957Z,1011.00
2019-04-23T00:56:44.899Z,1011.02
2019-04-23T00:57:50.462Z,1010.97
2019-04-23T00:58:47.747Z,1010.95
2019-04-23T00:59:46.802Z,1010.96
2019-04-23T01:00:51.390Z,1010.90
2019-04-23T01:01:49.681Z,1010.93
2019-04-23T01:02:48.754Z,1010.90
2019-04-23T01:03:42.520Z,1010.95
2019-04-23T01:04:47.718Z,1010.94
2019-04-23T01:05:41.071Z,1010.93
2019-04-23T01:06:45.954Z,1010.92
2019-04-23T01:07:46.943Z,1010.93
2019-04-23T01:08:49.714Z,1010.97
2019-04-23T01:09:45.732Z,1010.91
2019-04-23T01:10:48.419Z,1010.89
2019-04-23T01:11:46.644Z,1010.90
2019-04-23T01:12:45.893Z,1010.86
2019-04-23T01:13:44.345Z,1010.85
2019-04-23T01:14:38.429Z,1010.84
2019-04-23T01:15:46.716Z,1010.88
2019-04-23T01:16:38.129Z,1010.78
2019-04-23T01:18:51.434Z,1010.82
2019-04-23T01:19:54.776Z,1010.74
2019-04-23T01:20:47.424Z,1010.78
2019-04-23T01:21:22.385Z,1010.86
2019-04-23T01:22:21.065Z,1010.83
2019-04-23T01:23:28.571Z,1010.72
2019-04-23T01:24:28.807Z,1010.80
2019-04-23T01:25:34.192Z,1010.82
2019-04-23T01:26:48.436Z,1010.77
2019-04-23T01:27:52.735Z,1010.68
2019-04-23T01:28:53.690Z,1010.65
2019-04-23T01:29:50.685Z,1010.74
2019-04-23T01:30:49.159Z,1010.69
2019-04-23T01:31:47.949Z,1010.71
2019-04-23T01:32:43.684Z,1010.71
2019-04-23T01:33:50.325Z,1010.63
2019-04-23T01:34:51.671Z,1010.64
2019-04-23T01:35:51.205Z,1010.67
2019-04-23T01:36:50.316Z,1010.65
2019-04-23T01:37:58.200Z,1010.67
2019-04-23T01:38:56.001Z,1010.64
2019-04-23T01:39:45.516Z,1010.71
2019-04-23T01:40:46.098Z,1010.62
2019-04-23T01:41:50.735Z,1010.58
2019-04-23T01:42:58.915Z,1010.58
2019-04-23T01:43:47.611Z,1010.51
2019-04-23T01:44:53.834Z,1010.58
2019-04-23T01:45:35.848Z,1010.58
2019-04-23T01:46:50.750Z,1010.51
2019-04-23T01:49:53.930Z,1010.46
2019-04-23T01:50:52.114Z,1010.54
2019-04-23T01:51:55.201Z,1010.48
2019-04-23T01:53:45.806Z,1010.46
2019-04-23T01:54:45.474Z,1010.45
2019-04-23T01:55:46.849Z,1010.43
2019-04-23T01:56:42.363Z,1010.42
2019-04-23T01:57:58.122Z,1010.41
2019-04-23T01:58:45.491Z,1010.40
2019-04-23T01:59:49.368Z,1010.41
2019-04-23T02:02:49.536Z,1010.37
2019-04-23T02:05:01.375Z,1010.33
2019-04-23T02:06:00.518Z,1010.27
2019-04-23T02:07:04.490Z,1010.29
2019-04-23T02:08:58.586Z,1010.30
2019-04-23T02:11:59.169Z,1010.35
2019-04-23T02:13:05.586Z,1010.29
2019-04-23T02:13:55.359Z,1010.29
2019-04-23T02:15:05.142Z,1010.32
2019-04-23T02:15:59.835Z,1010.34
2019-04-23T02:16:57.931Z,1010.34
2019-04-23T02:18:07.427Z,1010.25
2019-04-23T02:18:56.727Z,1010.28
2019-04-23T02:20:03.839Z,1010.25
2019-04-23T02:21:57.755Z,1010.25
2019-04-23T02:23:06.201Z,1010.24
2019-04-23T02:23:55.081Z,1010.24
2019-04-23T02:25:03.151Z,1010.24
2019-04-23T02:25:54.244Z,1010.25
2019-04-23T02:27:03.176Z,1010.22
2019-04-23T02:29:05.917Z,1010.21
2019-04-23T02:32:03.323Z,1010.21
2019-04-23T02:33:27.405Z,1010.14
2019-04-23T02:34:12.143Z,1010.21
2019-04-23T02:35:12.098Z,1010.22
2019-04-23T02:35:58.694Z,1010.19
2019-04-23T02:37:02.136Z,1010.13
2019-04-23T02:38:19.215Z,1010.20
2019-04-23T02:38:55.470Z,1010.17
2019-04-23T02:41:19.819Z,1010.23
2019-04-23T02:44:15.223Z,1010.15
2019-04-23T02:45:02.131Z,1010.16
2019-04-23T02:47:15.486Z,1010.19
2019-04-23T02:48:15.961Z,1010.14
2019-04-23T02:49:07.096Z,1010.22
2019-04-23T02:50:55.529Z,1010.20
2019-04-23T02:53:05.178Z,1010.15
2019-04-23T02:56:14.555Z,1010.12
2019-04-23T02:56:55.699Z,1010.07
2019-04-23T02:59:10.765Z,1010.10
2019-04-23T03:01:22.038Z,1010.11
2019-04-23T03:02:14.367Z,1010.07
2019-04-23T03:04:10.376Z,1010.05
2019-04-23T03:05:00.765Z,1010.03
2019-04-23T03:07:14.156Z,1009.95
2019-04-23T03:07:59.946Z,1009.96
2019-04-23T03:09:04.865Z,1009.97
2019-04-23T03:11:08.153Z,1010.01
2019-04-23T03:12:08.270Z,1009.92
2019-04-23T03:13:16.091Z,1009.87
2019-04-23T03:14:18.597Z,1009.93
2019-04-23T03:15:14.916Z,1009.91
2019-04-23T03:17:03.399Z,1009.95
2019-04-23T03:19:02.934Z,1009.90
2019-04-23T03:20:07.951Z,1009.86
2019-04-23T03:22:01.571Z,1009.83
2019-04-23T03:24:38.883Z,1009.88
2019-04-23T03:26:55.627Z,1009.82
2019-04-23T03:27:31.470Z,1009.88
2019-04-23T03:28:37.090Z,1009.79
2019-04-23T03:29:31.703Z,1009.80
2019-04-23T03:30:48.732Z,1009.85
2019-04-23T03:35:16.209Z,1009.85
2019-04-23T03:36:17.028Z,1009.74
2019-04-23T03:38:37.993Z,1009.74
2019-04-23T03:39:34.650Z,1009.75
2019-04-23T03:40:42.286Z,1009.81
2019-04-23T03:42:23.894Z,1009.74
2019-04-23T03:44:34.509Z,1009.73
2019-04-23T03:45:54.073Z,1009.73
2019-04-23T03:46:33.923Z,1009.72
2019-04-23T03:50:29.860Z,1009.69
2019-04-23T03:51:28.771Z,1009.78
2019-04-23T03:53:32.737Z,1009.76
2019-04-23T03:54:35.597Z,1009.73
2019-04-23T03:57:24.532Z,1009.74
2019-04-23T03:58:27.881Z,1009.77
2019-04-23T04:00:32.955Z,1009.75
2019-04-23T04:07:36.545Z,1009.67
2019-04-23T04:08:26.743Z,1009.66
2019-04-23T04:10:31.607Z,1009.69
2019-04-23T04:11:21.601Z,1009.63
2019-04-23T04:12:27.363Z,1009.63
2019-04-23T04:13:40.714Z,1009.65
2019-04-23T04:15:46.265Z,1009.61
2019-04-23T04:16:28.960Z,1009.65
2019-04-23T04:17:32.619Z,1009.72
2019-04-23T04:23:33.054Z,1009.66
2019-04-23T04:24:27.417Z,1009.60
2019-04-23T04:25:33.579Z,1009.64
2019-04-23T04:27:36.839Z,1009.67
2019-04-23T04:29:30.305Z,1009.63
2019-04-23T04:30:31.958Z,1009.70
2019-04-23T04:31:30.966Z,1009.62
2019-04-23T04:32:16.434Z,1009.67
2019-04-23T04:35:05.276Z,1009.66
2019-04-23T04:35:22.087Z,1009.61
2019-04-23T04:36:45.830Z,1009.63
2019-04-23T04:39:27.176Z,1009.65
2019-04-23T04:40:29.548Z,1009.59
2019-04-23T04:41:40.383Z,1009.69
2019-04-23T04:42:14.833Z,1009.70
2019-04-23T04:43:32.137Z,1009.69
2019-04-23T04:47:35.788Z,1009.68
2019-04-23T04:48:28.105Z,1009.60
2019-04-23T04:50:32.875Z,1009.64
2019-04-23T04:56:29.100Z,1009.60
2019-04-23T04:58:25.579Z,1009.66
2019-04-23T04:59:25.759Z,1009.61
2019-04-23T05:00:34.885Z,1009.58
2019-04-23T05:01:22.425Z,1009.62
2019-04-23T05:02:43.238Z,1009.57
2019-04-23T05:03:23.713Z,1009.55
2019-04-23T05:04:33.127Z,1009.62
2019-04-23T05:06:21.270Z,1009.54
2019-04-23T05:07:30.484Z,1009.62
2019-04-23T05:08:29.089Z,1009.56
2019-04-23T05:09:31.930Z,1009.62
2019-04-23T05:10:43.681Z,1009.65
2019-04-23T05:11:28.231Z,1009.59
2019-04-23T05:12:25.475Z,1009.55
2019-04-23T05:14:45.328Z,1009.58
2019-04-23T05:15:16.904Z,1009.51
2019-04-23T05:16:27.792Z,1009.53
2019-04-23T05:17:30.162Z,1009.54
2019-04-23T05:18:23.515Z,1009.56
2019-04-23T05:19:29.843Z,1009.47
2019-04-23T05:20:21.121Z,1009.47
2019-04-23T05:21:21.498Z,1009.48
2019-04-23T05:22:24.453Z,1009.46
2019-04-23T05:23:33.450Z,1009.50
2019-04-23T05:24:23.212Z,1009.50
2019-04-23T05:25:17.927Z,1009.45
2019-04-23T05:26:48.097Z,1009.39
2019-04-23T05:27:17.535Z,1009.43
2019-04-23T05:30:29.779Z,1009.36
2019-04-23T05:31:18.635Z,1009.40
2019-04-23T05:32:19.473Z,1009.44
2019-04-23T05:33:44.162Z,1009.37
2019-04-23T05:34:14.599Z,1009.35
2019-04-23T05:36:35.924Z,1009.39
2019-04-23T05:37:23.124Z,1009.37
2019-04-23T05:38:37.998Z,1009.39
2019-04-23T05:39:20.855Z,1009.39
2019-04-23T05:40:30.642Z,1009.35
2019-04-23T05:41:23.350Z,1009.37
2019-04-23T05:42:20.119Z,1009.27
2019-04-23T05:43:22.304Z,1009.32
2019-04-23T05:44:21.591Z,1009.28
2019-04-23T05:45:18.219Z,1009.28
2019-04-23T05:47:23.224Z,1009.22
2019-04-23T05:48:19.761Z,1009.36
2019-04-23T05:49:22.717Z,1009.29
2019-04-23T05:50:31.947Z,1009.24
2019-04-23T05:51:23.121Z,1009.23
2019-04-23T05:52:17.817Z,1009.25
2019-04-23T05:53:24.732Z,1009.27
2019-04-23T05:54:22.037Z,1009.36
2019-04-23T05:55:13.333Z,1009.24
2019-04-23T05:56:36.871Z,1009.25
2019-04-23T05:57:14.281Z,1009.25
2019-04-23T05:58:26.757Z,1009.17
2019-04-23T05:59:19.550Z,1009.14
2019-04-23T06:00:21.297Z,1009.17
2019-04-23T06:01:37.964Z,1009.25
2019-04-23T06:03:29.075Z,1009.21
2019-04-23T06:05:56.543Z,1009.14
2019-04-23T06:06:26.194Z,1009.19
2019-04-23T06:07:33.311Z,1009.09
2019-04-23T06:08:25.506Z,1009.12
2019-04-23T06:11:18.564Z,1009.08
2019-04-23T06:12:13.798Z,1009.00
2019-04-23T06:13:20.680Z,1008.97
2019-04-23T06:14:18.899Z,1008.91
2019-04-23T06:15:22.014Z,1009.00
2019-04-23T06:18:25.199Z,1008.93
2019-04-23T06:19:32.941Z,1008.98
2019-04-23T06:20:45.072Z,1008.96
2019-04-23T06:21:44.392Z,1008.97
2019-04-23T06:23:26.931Z,1008.91
2019-04-23T06:25:01.727Z,1008.93
2019-04-23T06:25:49.505Z,1008.87
2019-04-23T06:27:20.264Z,1008.91
2019-04-23T06:29:25.927Z,1008.91
2019-04-23T06:30:20.829Z,1008.90
2019-04-23T06:31:40.758Z,1008.85
2019-04-23T06:32:22.857Z,1008.92
2019-04-23T06:33:21.142Z,1008.89
2019-04-23T06:34:21.732Z,1008.87
2019-04-23T06:35:19.075Z,1008.87
2019-04-23T06:36:19.523Z,1008.83
2019-04-23T06:39:21.435Z,1008.89
2019-04-23T06:41:23.060Z,1008.81
2019-04-23T06:42:11.355Z,1008.92
2019-04-23T06:46:43.520Z,1008.89
2019-04-23T06:47:35.684Z,1008.94
2019-04-23T06:48:40.870Z,1008.93
2019-04-23T06:50:41.473Z,1008.92
2019-04-23T06:53:40.304Z,1008.95
2019-04-23T06:54:42.462Z,1008.96
2019-04-23T06:55:47.444Z,1008.88
2019-04-23T06:56:46.114Z,1008.90
2019-04-23T06:57:33.688Z,1008.94
2019-04-23T06:58:40.295Z,1008.91
2019-04-23T06:59:39.205Z,1008.85
2019-04-23T07:00:42.030Z,1008.87
2019-04-23T07:02:37.690Z,1008.86
2019-04-23T07:03:46.787Z,1008.86
2019-04-23T07:04:43.533Z,1008.92
2019-04-23T07:06:38.346Z,1008.82
2019-04-23T07:08:04.313Z,1008.81
2019-04-23T07:08:56.265Z,1008.80
2019-04-23T07:09:38.871Z,1008.73
2019-04-23T07:11:48.248Z,1008.72
2019-04-23T07:14:44.015Z,1008.73
2019-04-23T07:16:46.283Z,1008.73
2019-04-23T07:17:51.527Z,1008.74
2019-04-23T07:18:47.013Z,1008.74
2019-04-23T07:19:49.241Z,1008.72
2019-04-23T07:20:50.878Z,1008.77
2019-04-23T07:21:51.367Z,1008.73
2019-04-23T07:22:53.723Z,1008.70
2019-04-23T07:24:00.252Z,1008.71
2019-04-23T07:24:52.968Z,1008.65
2019-04-23T07:25:55.897Z,1008.66
2019-04-23T07:26:41.875Z,1008.66
2019-04-23T07:27:47.391Z,1008.66
2019-04-23T07:29:56.589Z,1008.63
2019-04-23T07:31:00.451Z,1008.62
2019-04-23T07:32:52.882Z,1008.53
2019-04-23T07:34:55.742Z,1008.57
2019-04-23T07:38:13.094Z,1008.54
2019-04-23T07:41:21.511Z,1008.51
2019-04-23T07:43:10.192Z,1008.51
2019-04-23T07:45:10.506Z,1008.48
2019-04-23T07:46:17.155Z,1008.52
2019-04-23T07:48:13.373Z,1008.49
2019-04-23T07:49:11.955Z,1008.44
2019-04-23T07:51:06.387Z,1008.48
2019-04-23T07:53:17.315Z,1008.43
2019-04-23T07:54:16.044Z,1008.35
2019-04-23T07:55:21.669Z,1008.41
2019-04-23T07:56:30.682Z,1008.34
2019-04-23T07:57:14.953Z,1008.33
2019-04-23T07:58:23.779Z,1008.36
2019-04-23T07:59:14.308Z,1008.38
2019-04-23T08:00:13.660Z,1008.47
2019-04-23T08:01:08.250Z,1008.39
2019-04-23T08:02:15.895Z,1008.31
2019-04-23T08:03:17.626Z,1008.34
2019-04-23T08:04:10.622Z,1008.34
2019-04-23T08:05:21.536Z,1008.26
2019-04-23T08:06:05.809Z,1008.29
2019-04-23T08:07:16.416Z,1008.28
2019-04-23T08:08:07.177Z,1008.28
2019-04-23T08:09:08.757Z,1008.29
2019-04-23T08:10:12.246Z,1008.29
2019-04-23T08:11:30.626Z,1008.18
2019-04-23T08:12:19.192Z,1008.26
2019-04-23T08:13:15.508Z,1008.24
2019-04-23T08:14:22.372Z,1008.21
2019-04-23T08:16:18.259Z,1008.13
2019-04-23T08:17:14.388Z,1008.18
2019-04-23T08:18:13.502Z,1008.16
2019-04-23T08:19:17.012Z,1008.13
2019-04-23T08:20:11.211Z,1008.16
2019-04-23T08:21:10.438Z,1008.10
2019-04-23T08:22:24.009Z,1008.13
2019-04-23T08:23:12.634Z,1008.12
2019-04-23T08:24:08.673Z,1008.11
2019-04-23T08:25:14.328Z,1008.05
2019-04-23T08:26:22.539Z,1008.00
2019-04-23T08:28:18.919Z,1008.03
2019-04-23T08:29:15.370Z,1008.00
2019-04-23T08:30:05.661Z,1007.98
2019-04-23T08:31:15.264Z,1007.93
2019-04-23T08:32:12.474Z,1007.93
2019-04-23T08:33:12.544Z,1007.97
2019-04-23T08:34:25.726Z,1007.90
2019-04-23T08:35:09.262Z,1007.97
2019-04-23T08:36:11.763Z,1007.94
2019-04-23T08:39:10.334Z,1007.88
2019-04-23T08:40:12.007Z,1007.94
2019-04-23T08:41:24.845Z,1007.91
2019-04-23T08:42:32.087Z,1007.92
2019-04-23T08:43:26.064Z,1007.90
2019-04-23T08:44:15.612Z,1007.82
2019-04-23T08:45:17.000Z,1007.91
2019-04-23T08:46:13.492Z,1007.77
2019-04-23T08:47:09.426Z,1007.89
2019-04-23T08:49:20.041Z,1007.83
2019-04-23T08:50:29.244Z,1007.84
2019-04-23T08:51:22.394Z,1007.90
2019-04-23T08:52:11.638Z,1007.85
2019-04-23T08:53:26.383Z,1007.73
2019-04-23T08:54:17.141Z,1007.74
2019-04-23T08:55:08.690Z,1007.70
2019-04-23T08:56:15.583Z,1007.74
2019-04-23T08:58:14.383Z,1007.69
2019-04-23T08:59:21.364Z,1007.72
2019-04-23T09:00:09.131Z,1007.63
2019-04-23T09:01:09.576Z,1007.72
2019-04-23T09:03:24.829Z,1007.64
2019-04-23T09:04:11.155Z,1007.60
2019-04-23T09:05:20.778Z,1007.70
2019-04-23T09:06:14.030Z,1007.60
2019-04-23T09:07:16.932Z,1007.56
2019-04-23T09:08:15.451Z,1007.53
2019-04-23T09:09:14.525Z,1007.54
2019-04-23T09:10:17.876Z,1007.47
2019-04-23T09:11:18.838Z,1007.47
2019-04-23T09:12:11.627Z,1007.40
2019-04-23T09:13:35.050Z,1007.40
2019-04-23T09:14:04.620Z,1007.34
2019-04-23T09:15:16.055Z,1007.43
2019-04-23T09:16:09.107Z,1007.39
2019-04-23T09:17:11.280Z,1007.41
2019-04-23T09:19:14.640Z,1007.45
2019-04-23T09:20:17.957Z,1007.38
2019-04-23T09:21:07.434Z,1007.43
2019-04-23T09:22:14.458Z,1007.43
2019-04-23T09:23:13.551Z,1007.40
2019-04-23T09:24:09.574Z,1007.34
2019-04-23T09:25:14.710Z,1007.26
2019-04-23T09:26:22.466Z,1007.44
2019-04-23T09:27:19.343Z,1007.39
2019-04-23T09:28:09.039Z,1007.40
2019-04-23T09:29:14.874Z,1007.32
2019-04-23T09:30:16.317Z,1007.32
2019-04-23T09:31:18.883Z,1007.23
2019-04-23T09:32:22.286Z,1007.26
2019-04-23T09:33:13.938Z,1007.28
2019-04-23T09:35:15.599Z,1007.20
2019-04-23T09:36:13.613Z,1007.16
2019-04-23T09:37:10.376Z,1007.17
2019-04-23T09:38:17.677Z,1007.06
2019-04-23T09:39:12.499Z,1007.09
2019-04-23T09:40:18.562Z,1007.07
2019-04-23T09:42:22.317Z,1007.01
2019-04-23T09:43:27.725Z,1007.07
2019-04-23T09:46:12.067Z,1006.97
2019-04-23T09:47:17.516Z,1006.96
2019-04-23T09:48:23.412Z,1007.00
2019-04-23T09:50:08.313Z,1006.93
2019-04-23T09:51:07.942Z,1006.92
2019-04-23T09:52:14.591Z,1007.02
2019-04-23T09:53:17.766Z,1006.90
2019-04-23T09:54:12.909Z,1006.89
2019-04-23T09:55:15.492Z,1006.93
2019-04-23T09:56:10.250Z,1006.91
2019-04-23T09:57:04.180Z,1006.82
2019-04-23T09:58:08.251Z,1006.83
2019-04-23T09:59:17.538Z,1006.79
2019-04-23T10:00:16.880Z,1006.83
2019-04-23T10:01:12.265Z,1006.83
2019-04-23T10:02:04.142Z,1006.81
2019-04-23T10:03:01.623Z,1006.75
2019-04-23T10:03:57.062Z,1006.74
2019-04-23T10:04:56.910Z,1006.68
2019-04-23T10:05:53.388Z,1006.67
2019-04-23T10:07:00.166Z,1006.68
2019-04-23T10:07:51.840Z,1006.65
2019-04-23T10:08:49.481Z,1006.71
2019-04-23T10:09:42.545Z,1006.64
2019-04-23T10:10:42.283Z,1006.61
2019-04-23T10:11:42.946Z,1006.59
2019-04-23T10:12:42.079Z,1006.66
2019-04-23T10:13:42.660Z,1006.67
2019-04-23T10:14:51.822Z,1006.59
2019-04-23T10:15:45.736Z,1006.53
2019-04-23T10:16:41.415Z,1006.56
2019-04-23T10:17:42.383Z,1006.52
2019-04-23T10:18:41.476Z,1006.58
2019-04-23T10:19:42.612Z,1006.55
2019-04-23T10:20:42.551Z,1006.53
2019-04-23T10:21:41.872Z,1006.46
2019-04-23T10:22:42.223Z,1006.49
2019-04-23T10:23:41.310Z,1006.48
2019-04-23T10:24:41.166Z,1006.46
2019-04-23T10:25:41.048Z,1006.49
2019-04-23T10:26:41.910Z,1006.41
2019-04-23T10:27:41.367Z,1006.47
2019-04-23T10:28:42.161Z,1006.43
2019-04-23T10:29:41.636Z,1006.45
2019-04-23T10:30:40.979Z,1006.36
2019-04-23T10:31:42.132Z,1006.41
2019-04-23T10:32:41.390Z,1006.40
2019-04-23T10:33:42.100Z,1006.39
2019-04-23T10:34:55.249Z,1006.35
2019-04-23T10:35:51.513Z,1006.29
2019-04-23T10:36:42.680Z,1006.33
2019-04-23T10:37:49.069Z,1006.29
2019-04-23T10:38:51.548Z,1006.25
2019-04-23T10:39:45.652Z,1006.32
2019-04-23T10:40:45.839Z,1006.22
2019-04-23T10:41:45.373Z,1006.27
2019-04-23T10:42:43.876Z,1006.16
2019-04-23T10:43:43.987Z,1006.13
2019-04-23T10:44:43.189Z,1006.20
2019-04-23T10:46:01.890Z,1006.26
2019-04-23T10:47:02.754Z,1006.10
2019-04-23T10:48:23.104Z,1006.06
2019-04-23T10:50:07.407Z,1006.07
2019-04-23T10:51:04.470Z,1006.07
2019-04-23T10:52:13.358Z,1006.02
2019-04-23T10:53:19.512Z,1005.93
2019-04-23T10:54:23.328Z,1006.12
2019-04-23T10:55:06.048Z,1005.99
2019-04-23T10:56:13.532Z,1006.02
2019-04-23T10:57:07.422Z,1006.00
2019-04-23T10:58:16.441Z,1005.95
2019-04-23T10:59:16.917Z,1005.93
2019-04-23T11:00:12.618Z,1005.91
2019-04-23T11:03:20.505Z,1005.96
2019-04-23T11:04:18.243Z,1005.88
2019-04-23T11:06:18.931Z,1005.97
2019-04-23T11:07:25.418Z,1005.98
2019-04-23T11:08:10.730Z,1005.91
2019-04-23T11:09:27.233Z,1005.99
2019-04-23T11:10:13.138Z,1006.14
2019-04-23T11:11:17.005Z,1006.23
2019-04-23T11:12:24.538Z,1006.18
2019-04-23T11:13:10.480Z,1006.25
2019-04-23T11:14:23.235Z,1006.17
2019-04-23T11:15:22.806Z,1006.25
2019-04-23T11:16:40.409Z,1006.21
2019-04-23T11:17:33.015Z,1006.18
2019-04-23T11:18:08.875Z,1005.91
2019-04-23T11:19:34.631Z,1006.19
2019-04-23T11:20:14.911Z,1006.19
2019-04-23T11:21:17.973Z,1006.16
2019-04-23T11:22:32.705Z,1006.12
2019-04-23T11:22:58.474Z,1006.13
2019-04-23T11:24:20.726Z,1006.22
2019-04-23T11:25:24.473Z,1006.23
2019-04-23T11:26:19.384Z,1006.19
2019-04-23T11:27:19.101Z,1006.08
2019-04-23T11:28:13.321Z,1006.13
2019-04-23T11:29:12.901Z,1006.12
2019-04-23T11:30:19.605Z,1006.16
2019-04-23T11:31:15.655Z,1006.12
2019-04-23T11:32:29.472Z,1006.12
2019-04-23T11:34:20.249Z,1006.09
2019-04-23T11:35:24.195Z,1006.11
2019-04-23T11:36:43.564Z,1006.13
2019-04-23T11:37:14.521Z,1006.05
2019-04-23T11:38:35.594Z,1006.11
2019-04-23T11:39:08.424Z,1006.03
2019-04-23T11:40:15.828Z,1006.10
2019-04-23T11:41:21.492Z,1005.97
2019-04-23T11:42:14.620Z,1006.01
2019-04-23T11:44:20.677Z,1006.04
2019-04-23T11:45:19.250Z,1006.07
2019-04-23T11:46:17.828Z,1006.08
2019-04-23T11:47:25.863Z,1006.08
2019-04-23T11:50:39.701Z,1006.09
2019-04-23T11:53:10.526Z,1005.90
2019-04-23T11:54:15.903Z,1005.94
2019-04-23T11:55:30.980Z,1005.90
2019-04-23T11:58:13.764Z,1005.87
2019-04-23T11:59:16.296Z,1005.69
2019-04-23T12:00:14.420Z,1005.61
2019-04-23T12:01:33.879Z,1005.80
2019-04-23T12:02:07.165Z,1005.81
2019-04-23T12:03:04.286Z,1005.76
2019-04-23T12:04:26.282Z,1005.76
2019-04-23T12:06:15.311Z,1005.79
2019-04-23T12:07:18.724Z,1005.82
2019-04-23T12:08:17.522Z,1005.77
2019-04-23T12:09:07.411Z,1005.80
2019-04-23T12:10:17.148Z,1005.81
2019-04-23T12:12:23.544Z,1005.84
2019-04-23T12:13:14.898Z,1005.80
2019-04-23T12:14:24.634Z,1005.86
2019-04-23T12:15:21.059Z,1005.80
2019-04-23T12:16:12.148Z,1005.74
2019-04-23T12:17:54.251Z,1005.84
2019-04-23T12:18:10.625Z,1005.89
2019-04-23T12:19:40.977Z,1005.77
2019-04-23T12:20:28.929Z,1005.69
2019-04-23T12:21:12.586Z,1005.75
2019-04-23T12:22:18.084Z,1005.73
2019-04-23T12:23:25.473Z,1005.78
2019-04-23T12:24:17.258Z,1005.74
2019-04-23T12:26:22.759Z,1005.70
2019-04-23T12:27:13.710Z,1005.64
2019-04-23T12:28:06.703Z,1005.77
2019-04-23T12:29:23.423Z,1005.71
2019-04-23T12:31:13.665Z,1005.77
2019-04-23T12:32:24.132Z,1005.60
2019-04-23T12:33:20.756Z,1005.63
2019-04-23T12:34:14.949Z,1005.60
2019-04-23T12:36:14.538Z,1005.76
2019-04-23T12:37:17.326Z,1005.68
2019-04-23T12:39:11.246Z,1005.77
2019-04-23T12:40:15.561Z,1005.70
2019-04-23T12:41:03.843Z,1005.61
2019-04-23T12:42:25.429Z,1005.65
2019-04-23T12:43:11.602Z,1005.63
2019-04-23T12:44:07.874Z,1005.71
2019-04-23T12:45:26.740Z,1005.69
2019-04-23T12:46:13.145Z,1005.64
2019-04-23T12:47:21.264Z,1005.80
2019-04-23T12:48:18.416Z,1005.63
2019-04-23T12:49:25.005Z,1005.70
2019-04-23T12:51:20.727Z,1005.62
2019-04-23T12:52:13.021Z,1005.73
2019-04-23T12:53:10.537Z,1005.75
2019-04-23T12:54:20.596Z,1005.72
2019-04-23T12:55:19.351Z,1005.61
2019-04-23T12:56:12.785Z,1005.59
2019-04-23T12:57:14.600Z,1005.61
2019-04-23T12:58:09.928Z,1005.56
2019-04-23T12:59:09.465Z,1005.62
2019-04-23T13:01:10.253Z,1005.43
2019-04-23T13:02:22.710Z,1005.48
2019-04-23T13:03:26.110Z,1005.51
2019-04-23T13:04:09.375Z,1005.50
2019-04-23T13:05:11.867Z,1005.44
2019-04-23T13:06:01.767Z,1005.48
2019-04-23T13:06:57.862Z,1005.50
2019-04-23T13:08:15.789Z,1005.47
2019-04-23T13:09:14.242Z,1005.45
2019-04-23T13:10:17.523Z,1005.54
2019-04-23T13:11:07.955Z,1005.56
2019-04-23T13:12:11.727Z,1005.32
2019-04-23T13:13:17.259Z,1005.33
2019-04-23T13:15:11.550Z,1005.27
2019-04-23T13:16:53.973Z,1005.29
2019-04-23T13:17:40.579Z,1005.34
2019-04-23T13:18:23.896Z,1005.34
2019-04-23T13:19:14.363Z,1005.29
2019-04-23T13:20:14.421Z,1005.38
2019-04-23T13:21:36.395Z,1005.37
2019-04-23T13:23:15.226Z,1005.24
2019-04-23T13:24:11.307Z,1005.17
2019-04-23T13:25:13.295Z,1005.18
2019-04-23T13:25:59.617Z,1005.22
2019-04-23T13:27:15.440Z,1005.32
2019-04-23T13:28:13.039Z,1005.32
2019-04-23T13:29:13.544Z,1005.27
2019-04-23T13:30:16.551Z,1005.20
2019-04-23T13:32:09.630Z,1005.03
2019-04-23T13:33:24.994Z,1005.17
2019-04-23T13:34:11.032Z,1005.24
2019-04-23T13:35:18.522Z,1005.21
2019-04-23T13:37:11.987Z,1005.27
2019-04-23T13:38:17.495Z,1005.19
2019-04-23T13:39:10.260Z,1005.22
2019-04-23T13:40:09.000Z,1005.23
2019-04-23T13:42:15.089Z,1005.04
2019-04-23T13:43:12.504Z,1004.98
2019-04-23T13:44:00.260Z,1005.15
2019-04-23T13:45:18.424Z,1005.11
2019-04-23T13:47:23.775Z,1005.01
2019-04-23T13:48:10.769Z,1005.04
2019-04-23T13:49:09.974Z,1005.00
2019-04-23T13:50:17.412Z,1004.97
2019-04-23T13:51:19.396Z,1004.80
2019-04-23T13:52:26.372Z,1004.82
2019-04-23T13:53:20.225Z,1004.82
2019-04-23T13:54:07.233Z,1004.87
2019-04-23T13:55:10.825Z,1004.93
2019-04-23T13:56:08.846Z,1004.80
2019-04-23T13:59:37.802Z,1004.88
2019-04-23T14:00:06.768Z,1004.85
2019-04-23T14:02:17.665Z,1004.94
2019-04-23T14:03:09.581Z,1004.92
2019-04-23T14:04:16.742Z,1004.84
2019-04-23T14:05:06.355Z,1004.88
2019-04-23T14:07:17.612Z,1004.91
2019-04-23T14:08:16.489Z,1004.93
2019-04-23T14:09:14.410Z,1004.85
2019-04-23T14:10:20.051Z,1004.90
2019-04-23T14:11:11.615Z,1005.01
2019-04-23T14:12:10.672Z,1005.05
2019-04-23T14:13:30.240Z,1005.00
2019-04-23T14:14:40.067Z,1005.00
2019-04-23T14:15:16.213Z,1004.92
2019-04-23T14:16:10.104Z,1005.00
2019-04-23T14:17:18.696Z,1004.98
2019-04-23T14:18:27.376Z,1004.95
2019-04-23T14:19:04.331Z,1004.86
2019-04-23T14:20:07.228Z,1004.90
2019-04-23T14:21:16.684Z,1004.86
2019-04-23T14:22:21.168Z,1004.83
2019-04-23T14:25:09.990Z,1004.92
2019-04-23T14:26:20.743Z,1004.95
2019-04-23T14:27:14.337Z,1004.99
2019-04-23T14:29:04.507Z,1004.97
2019-04-23T14:30:13.249Z,1004.88
2019-04-23T14:32:34.995Z,1004.92
2019-04-23T14:33:17.515Z,1004.97
2019-04-23T14:34:11.658Z,1004.98
2019-04-23T14:35:25.645Z,1004.94
2019-04-23T14:36:08.062Z,1004.93
2019-04-23T14:39:05.933Z,1005.02
2019-04-23T14:40:16.065Z,1004.95
2019-04-23T14:41:23.480Z,1004.99
2019-04-23T14:44:10.402Z,1005.01
2019-04-23T14:45:21.189Z,1005.08
2019-04-23T14:46:27.098Z,1005.04
2019-04-23T14:47:18.368Z,1005.04
2019-04-23T14:48:08.864Z,1004.96
2019-04-23T14:49:11.889Z,1004.94
2019-04-23T14:51:13.356Z,1004.94
2019-04-23T14:52:09.171Z,1004.95
2019-04-23T14:53:12.522Z,1004.95
2019-04-23T14:54:08.942Z,1005.00
2019-04-23T14:56:13.146Z,1004.93
2019-04-23T14:58:18.540Z,1004.99
2019-04-23T15:00:15.649Z,1004.87
2019-04-23T15:01:22.395Z,1004.98
2019-04-23T15:02:13.793Z,1004.85
2019-04-23T15:03:25.220Z,1004.97
2019-04-23T15:04:01.902Z,1004.93